createdAt,value
2022-11-09T00:02:24.093Z,1.30
2022-11-09T00:07:25.792Z,1.23
2022-11-09T00:12:27.472Z,1.20
2022-11-09T00:17:29.191Z,1.20
2022-11-09T00:22:30.760Z,1.20
2022-11-09T00:27:32.238Z,1.60
2022-11-09T00:32:33.778Z,1.23
2022-11-09T00:37:35.506Z,1.23
2022-11-09T00:42:37.027Z,0.90
2022-11-09T00:47:38.608Z,1.30
2022-11-09T00:52:40.123Z,1.20
2022-11-09T00:57:42.513Z,1.40
2022-11-09T01:02:44.547Z,1.40
2022-11-09T01:07:46.116Z,1.30
2022-11-09T01:12:47.671Z,1.23
2022-11-09T01:17:50.098Z,1.40
2022-11-09T01:22:52.048Z,1.20
2022-11-09T01:27:56.047Z,1.37
2022-11-09T01:32:57.618Z,1.37
2022-11-09T01:38:01.056Z,1.20
2022-11-09T01:43:22.075Z,1.30
2022-11-09T01:48:57.287Z,1.17
2022-11-09T01:54:20.984Z,1.23
2022-11-09T01:59:26.595Z,1.20
2022-11-09T02:04:37.203Z,1.40
2022-11-09T02:09:40.059Z,1.40
2022-11-09T02:14:41.909Z,1.20
2022-11-09T02:19:43.717Z,1.40
2022-11-09T02:24:45.444Z,1.30
2022-11-09T02:29:48.620Z,1.10
2022-11-09T02:34:50.309Z,1.30
2022-11-09T02:39:52.230Z,1.30
2022-11-09T02:44:59.528Z,1.37
2022-11-09T02:50:01.676Z,1.20
2022-11-09T02:55:03.542Z,1.37
2022-11-09T03:00:06.026Z,1.10
2022-11-09T03:05:08.999Z,1.23
2022-11-09T03:10:13.882Z,1.30
2022-11-09T03:15:16.384Z,1.10
2022-11-09T03:20:20.597Z,1.30
2022-11-09T03:25:23.316Z,1.07
2022-11-09T03:30:26.069Z,1.23
2022-11-09T03:35:28.682Z,1.10
2022-11-09T03:40:31.371Z,1.10
2022-11-09T03:45:33.221Z,1.10
2022-11-09T03:50:35.706Z,1.50
2022-11-09T03:55:38.325Z,0.97
2022-11-09T04:00:40.041Z,0.90
2022-11-09T04:05:41.688Z,1.10
2022-11-09T04:10:43.291Z,1.00
2022-11-09T04:15:44.871Z,1.17
2022-11-09T04:20:46.502Z,1.33
2022-11-09T04:25:48.108Z,1.00
2022-11-09T04:30:53.170Z,1.23
2022-11-09T04:35:54.773Z,0.90
2022-11-09T04:41:00.363Z,0.97
2022-11-09T04:46:07.514Z,1.27
2022-11-09T04:51:13.508Z,1.10
2022-11-09T04:56:15.212Z,1.13
2022-11-09T05:01:16.952Z,0.93
2022-11-09T05:06:33.860Z,1.07
2022-11-09T05:11:36.015Z,1.17
2022-11-09T05:16:37.599Z,0.80
2022-11-09T05:21:39.294Z,1.20
2022-11-09T05:26:41.881Z,1.00
2022-11-09T05:31:51.823Z,1.00
2022-11-09T05:36:53.888Z,0.77
2022-11-09T05:41:55.401Z,0.87
2022-11-09T05:46:56.893Z,0.60
2022-11-09T05:51:58.436Z,0.77
2022-11-09T05:57:01.963Z,1.00
2022-11-09T06:02:03.771Z,0.97
2022-11-09T06:07:05.728Z,0.80
2022-11-09T06:12:07.377Z,1.13
2022-11-09T06:17:08.879Z,1.00
2022-11-09T06:22:10.503Z,1.10
2022-11-09T06:27:12.154Z,0.80
2022-11-09T06:32:13.809Z,1.00
2022-11-09T06:37:17.802Z,0.80
2022-11-09T06:42:19.503Z,1.03
2022-11-09T06:47:21.183Z,0.80
2022-11-09T06:52:23.353Z,0.80
2022-11-09T06:57:24.924Z,0.90
2022-11-09T07:02:26.466Z,1.00
2022-11-09T07:07:28.459Z,1.10
2022-11-09T07:12:30.168Z,1.20
2022-11-09T07:17:33.133Z,1.33
2022-11-09T07:22:39.236Z,1.10
2022-11-09T07:27:40.905Z,1.10
2022-11-09T07:38:04.705Z,0.90
2022-11-09T07:43:06.757Z,1.17
2022-11-09T07:48:10.973Z,1.00
2022-11-09T07:53:14.332Z,0.87
2022-11-09T07:58:15.865Z,1.10
2022-11-09T08:03:19.409Z,1.23
2022-11-09T08:08:21.074Z,0.70
2022-11-09T08:13:23.249Z,1.00
2022-11-09T08:18:25.031Z,0.90
2022-11-09T08:23:26.526Z,1.03
2022-11-09T08:28:29.077Z,1.10
2022-11-09T08:33:33.324Z,1.20
2022-11-09T08:38:34.832Z,1.07
2022-11-09T08:43:36.678Z,1.20
2022-11-09T08:48:38.263Z,1.10
2022-11-09T08:53:39.830Z,1.00
2022-11-09T08:58:41.377Z,0.83
2022-11-09T09:03:43.310Z,0.60
2022-11-09T09:08:44.832Z,1.03
2022-11-09T09:13:46.545Z,0.87
2022-11-09T09:18:48.690Z,0.80
2022-11-09T09:23:50.649Z,0.67
2022-11-09T09:28:52.284Z,0.83
2022-11-09T09:33:53.812Z,0.50
2022-11-09T09:38:55.608Z,0.80
2022-11-09T09:43:59.693Z,0.60
2022-11-09T09:49:12.719Z,0.60
2022-11-09T09:54:55.853Z,1.30
2022-11-09T10:00:00.868Z,0.77
2022-11-09T10:05:07.871Z,0.60
2022-11-09T10:10:31.185Z,0.67
2022-11-09T10:15:51.335Z,0.60
2022-11-09T10:21:15.250Z,0.70
2022-11-09T10:26:19.582Z,0.63
2022-11-09T10:31:23.434Z,0.70
2022-11-09T10:36:33.162Z,0.70
2022-11-09T10:41:39.705Z,0.87
2022-11-09T10:47:07.161Z,0.87
2022-11-09T10:52:46.145Z,1.10
2022-11-09T10:58:11.082Z,0.70
2022-11-09T11:03:38.755Z,0.73
2022-11-09T11:09:01.333Z,0.70
2022-11-09T11:14:29.461Z,0.80
2022-11-09T11:19:49.589Z,0.83
2022-11-09T11:25:22.698Z,0.77
2022-11-09T11:30:43.054Z,0.70
2022-11-09T11:36:34.444Z,1.00
2022-11-09T11:42:07.342Z,0.87
2022-11-09T11:48:05.703Z,0.97
2022-11-09T11:53:58.969Z,0.80
2022-11-09T11:59:31.069Z,0.90
2022-11-09T12:05:06.247Z,0.93
2022-11-09T12:10:44.860Z,0.90
2022-11-09T12:16:17.759Z,0.97
2022-11-09T12:22:23.215Z,0.93
2022-11-09T12:27:53.523Z,0.80
2022-11-09T12:33:21.841Z,1.00
2022-11-09T12:38:52.678Z,0.80
2022-11-09T12:44:20.008Z,0.93
2022-11-09T12:49:42.612Z,1.03
2022-11-09T12:55:04.845Z,0.80
2022-11-09T13:00:34.378Z,0.97
2022-11-09T13:06:22.797Z,1.13
2022-11-09T13:11:48.662Z,0.83
2022-11-09T13:17:20.824Z,1.67
2022-11-09T13:22:58.663Z,0.70
2022-11-09T13:28:27.972Z,1.10
2022-11-09T13:33:48.425Z,1.10
2022-11-09T13:39:23.688Z,0.80
2022-11-09T13:44:45.939Z,0.97
2022-11-09T13:50:21.975Z,0.90
2022-11-09T13:55:42.667Z,1.00
2022-11-09T14:01:02.947Z,0.90
2022-11-09T14:06:23.296Z,0.83
2022-11-09T14:12:06.431Z,1.37
2022-11-09T14:17:33.718Z,1.00
2022-11-09T14:22:54.267Z,1.13
2022-11-09T14:28:23.476Z,0.93
2022-11-09T14:33:58.818Z,0.90
2022-11-09T14:39:34.160Z,0.90
2022-11-09T14:44:54.141Z,0.73
2022-11-09T14:50:18.748Z,0.90
2022-11-09T14:55:42.321Z,1.20
2022-11-09T15:01:24.262Z,0.97
2022-11-09T15:06:51.375Z,1.00
2022-11-09T15:12:15.866Z,1.10
2022-11-09T15:17:37.799Z,1.37
2022-11-09T15:22:57.881Z,1.30
2022-11-09T15:28:26.411Z,0.97
2022-11-09T15:33:57.120Z,1.37
2022-11-09T15:39:19.565Z,1.07
2022-11-09T15:44:39.619Z,1.20
2022-11-09T15:50:01.749Z,1.10
2022-11-09T15:55:23.261Z,1.33
2022-11-09T16:00:43.991Z,1.10
2022-11-09T16:06:04.044Z,0.90
2022-11-09T16:11:23.922Z,0.73
2022-11-09T16:16:43.730Z,1.13
2022-11-09T16:22:04.035Z,1.20
2022-11-09T16:27:48.974Z,1.60
2022-11-09T16:33:05.411Z,1.33
2022-11-09T16:38:28.514Z,1.20
2022-11-09T16:43:52.643Z,1.43
2022-11-09T16:49:12.691Z,1.27
2022-11-09T16:54:32.777Z,1.00
2022-11-09T16:59:53.199Z,1.27
2022-11-09T17:05:13.347Z,1.57
2022-11-09T17:10:33.658Z,1.23
2022-11-09T17:15:54.240Z,1.20
2022-11-09T17:21:15.088Z,1.13
2022-11-09T17:26:37.611Z,1.20
2022-11-09T17:31:58.315Z,1.33
2022-11-09T17:37:18.378Z,1.33
2022-11-09T17:42:38.633Z,1.10
2022-11-09T17:47:59.357Z,1.37
2022-11-09T17:53:19.566Z,1.60
2022-11-09T17:58:41.610Z,1.20
2022-11-09T18:04:06.228Z,1.30
2022-11-09T18:09:40.810Z,1.70
2022-11-09T18:15:01.888Z,1.90
2022-11-09T18:20:23.424Z,1.40
2022-11-09T18:25:43.277Z,1.80
2022-11-09T18:31:08.498Z,1.50
2022-11-09T18:36:28.819Z,1.43
2022-11-09T18:41:48.710Z,1.40
2022-11-09T18:47:09.708Z,1.30
2022-11-09T18:52:32.531Z,1.70
2022-11-09T18:57:52.945Z,1.77
2022-11-09T19:03:15.075Z,1.57
2022-11-09T19:08:53.962Z,1.77
2022-11-09T19:14:14.592Z,1.60
2022-11-09T19:19:34.612Z,1.50
2022-11-09T19:24:54.605Z,1.50
2022-11-09T19:30:15.546Z,1.40
2022-11-09T19:35:35.982Z,1.60
2022-11-09T19:40:56.396Z,1.30
2022-11-09T19:46:16.799Z,1.30
2022-11-09T19:51:37.285Z,1.33
2022-11-09T19:56:57.537Z,1.67
2022-11-09T20:02:17.496Z,1.70
2022-11-09T20:07:37.680Z,1.33
2022-11-09T20:12:58.570Z,1.40
2022-11-09T20:18:20.634Z,1.27
2022-11-09T20:23:41.352Z,1.23
2022-11-09T20:29:01.595Z,1.33
2022-11-09T20:34:21.850Z,1.60
2022-11-09T20:39:44.004Z,1.30
2022-11-09T20:45:04.606Z,1.70
2022-11-09T20:50:24.714Z,1.43
2022-11-09T20:55:44.838Z,1.60
2022-11-09T21:01:14.995Z,1.50
2022-11-09T21:06:35.005Z,1.10
2022-11-09T21:12:13.385Z,1.33
2022-11-09T21:17:33.591Z,1.07
2022-11-09T21:23:11.943Z,1.40
2022-11-09T21:28:50.461Z,1.40
2022-11-09T21:34:10.979Z,1.73
2022-11-09T21:39:31.183Z,1.23
2022-11-09T21:44:51.484Z,1.53
2022-11-09T21:50:13.001Z,1.60
2022-11-09T21:55:33.650Z,1.77
2022-11-09T22:00:54.093Z,1.37
2022-11-09T22:06:15.534Z,1.57
2022-11-09T22:11:54.262Z,1.60
2022-11-09T22:17:14.897Z,1.50
2022-11-09T22:22:36.384Z,1.30
2022-11-09T22:27:56.682Z,1.97
2022-11-09T22:33:25.916Z,1.60
2022-11-09T22:38:47.596Z,1.60
2022-11-09T22:44:08.096Z,1.30
2022-11-09T22:49:28.093Z,1.60
2022-11-09T22:54:48.147Z,1.40
2022-11-09T23:00:10.834Z,1.50
2022-11-09T23:05:30.877Z,1.30
2022-11-09T23:10:55.306Z,1.67
2022-11-09T23:16:15.995Z,1.37
2022-11-09T23:21:37.186Z,2.00
2022-11-09T23:26:57.703Z,1.50
2022-11-09T23:32:18.052Z,1.40
2022-11-09T23:37:39.057Z,1.57
2022-11-09T23:43:02.577Z,1.43
2022-11-09T23:48:22.642Z,1.30
2022-11-09T23:53:43.046Z,1.60
2022-11-09T23:59:03.303Z,1.50
